Terminal Aerodrome Forecast
Issued by NWS

Home | Current Version | Previous Version | Text Only | Print | Product List | Glossary On
Versions: 1 2 3 4 5 6 7 8 9 10 11 12 13 14 15
000
FTUS45 KPSR 211100
TAFBLH
TAF
KBLH 211138Z 2112/2212 16007KT P6SM SCT120 BKN200
     FM211800 18010G15KT P6SM VCTS SCT080CB BKN120
      TEMPO 2120/2124 VRB15G25KT TSRA BKN070CB
     FM220300 21006KT P6SM SCT090 BKN150=

USA.gov is the U.S. government's official web portal to all federal, state and local government web resources and services.